Smith Valley, Nevada Weather observations

Data are for 10 minute period ending at time listed.
 Day   Time   Solar   Ave.   Ave.  Ave.  Vector  Max.   Baro.   Total    
  of    of     Rad.   Air    Rel.  Wind   Wind   Wind  Press.  Precip.   
Year   Day            Temp.  Hum.  Speed  Dir.   Gust                    
2015   (PST)  Kw/m2    F      %     mph   deg.    mph    mb.     in.     
-------------------------------------------------------------------------
  85   20:50   0.00   53.8    39    4.3   278     6.1   859.9    0.00 
  85   21:00   0.00   53.7    38    4.0   276     6.1   859.9    0.00 
  85   21:10   0.00   52.2    39    2.8    95     4.5   860.0    0.00 
  85   21:20   0.00   51.3    38    1.1    74     2.1   860.1    0.00 
  85   21:30   0.00   49.5    40    2.5   143     4.6   860.2    0.00 
  85   21:40   0.00   49.0    42    2.6   152     3.4   860.3    0.00 
  85   21:50   0.00   47.0    45    3.5   176     4.8   860.5    0.00 
  85   22:00   0.00   44.2    51    3.4   185     4.6   860.5    0.00 
  85   22:10   0.00   43.4    52    3.7   161     4.8   860.5    0.00 
  85   22:20   0.00   45.7    46    3.6   156     5.5   860.6    0.00 
  85   22:30   0.00   45.6    44    2.6   166     4.2   860.6    0.00 
  85   22:40   0.00   43.0    50    3.4   202     4.4   860.6    0.00 
  85   22:50   0.00   42.9    52    1.8   153     2.8   860.7    0.00 
  85   23:00   0.00   44.8    49    2.2   147     3.6   860.7    0.00 
  85   23:10   0.00   45.4    47    2.5   104     3.3   860.6    0.00 
  85   23:20   0.00   43.6    48    1.9    91     5.0   860.6    0.00 
  85   23:30   0.00   42.3    49    2.4    96     3.5   860.6    0.00 
  85   23:40   0.00   44.0    46    3.2   103     4.9   860.6    0.00 
  85   23:50   0.00   43.1    46    2.4   109     3.6   860.5    0.00 
  86    0:00   0.00   42.8    47    1.6   109     3.0   860.6    0.00 
  86    0:10   0.00   41.7    49    1.7   239     2.8   860.6    0.00 
  86    0:20   0.00   41.2    53    1.2   283     2.3   860.6    0.00 
  86    0:30   0.00   40.3    54    1.8   299     2.7   860.6    0.00 
  86    0:40   0.00   40.2    58    1.0   309     2.5   860.6    0.00 
  86    0:50   0.00   39.4    66    0.3   312     0.9   860.6    0.00 
  86    1:00   0.00   38.5    67    0.3   300     1.2   860.6    0.00 
  86    1:10   0.00   38.2    67    0.0     0     0.0   860.6    0.00 
  86    1:20   0.00   38.2    64    0.5   215     1.6   860.5    0.00 
  86    1:30   0.00   37.7    61    0.2   255     1.5   860.5    0.00 
  86    1:40   0.00   36.1    59    1.5   234     2.2   860.5    0.00 
  86    1:50   0.00   36.5    62    1.9   206     3.1   860.4    0.00 
  86    2:00   0.00   36.3    64    1.6   198     2.9   860.4    0.00 
  86    2:10   0.00   37.2    63    0.9   189     2.0   860.3    0.00 
  86    2:20   0.00   36.7    60    1.2   223     2.2   860.2    0.00 
  86    2:30   0.00   35.9    63    2.0   172     3.3   860.2    0.00 
  86    2:40   0.00   37.5    59    1.6   136     2.6   860.1    0.00 
  86    2:50   0.00   35.7    59    1.1   138     2.6   860.1    0.00 
  86    3:00   0.00   35.1    59    1.6   172     2.0   860.2    0.00 
  86    3:10   0.00   35.8    63    1.1   174     1.8   860.2    0.00 
  86    3:20   0.00   36.0    60    2.2   156     3.8   860.2    0.00 
  86    3:30   0.00   36.5    57    2.6   168     3.8   860.2    0.00 
  86    3:40   0.00   34.4    62    3.8   230     5.4   860.2    0.00 
  86    3:50   0.00   33.2    71    3.6   227     5.7   860.2    0.00 
  86    4:00   0.00   34.0    68    2.1    11     3.7   860.2    0.00 
  86    4:10   0.00   32.7    65    3.4    73     5.3   860.2    0.00 
  86    4:20   0.00   33.0    66    2.3   120     2.9   860.2    0.00 
  86    4:30   0.00   34.8    62    1.5   182     2.9   860.1    0.00 
  86    4:40   0.00   32.8    64    2.1   204     3.2   860.1    0.00 
  86    4:50   0.00   32.3    66    2.3   183     3.8   860.1    0.00 
  86    5:00   0.00   31.1    70    3.5   215     4.6   860.1    0.00 
  86    5:10   0.00   31.1    75    0.9    34     2.6   860.1    0.00 
  86    5:20   0.00   31.5    72    0.1    70     1.2   860.2    0.00 
  86    5:30   0.00   31.3    72    0.4    75     1.2   860.1    0.00 
  86    5:40   0.00   32.3    72    1.7   161     5.6   860.1    0.00 
  86    5:50   0.00   32.2    67    2.7    95     3.7   860.2    0.00 
  86    6:00   0.01   33.1    66    2.5   117     3.3   860.2    0.00 
  86    6:10   0.03   33.2    63    1.9   197     3.3   860.3    0.00 
  86    6:20   0.06   32.6    66    3.5   220     4.4   860.3    0.00 
  86    6:30   0.08   34.9    66    1.0   204     2.8   860.5    0.00 
  86    6:40   0.11   37.2    60    1.5    82     3.2   860.5    0.00 
  86    6:50   0.14   39.6    55    1.2    65     1.8   860.4    0.00 
  86    7:00   0.17   40.9    54    1.2   242     2.3   860.5    0.00 
  86    7:10   0.20   43.6    52    1.3   266     2.1   860.5    0.00 
  86    7:20   0.24   45.3    49    1.2   344     2.4   860.3    0.00 
  86    7:30   0.27   47.7    44    0.5   335     1.3   860.2    0.00 
  86    7:40   0.31   49.2    42    1.3    61     2.3   860.2    0.00 
  86    7:50   0.34   49.8    41    0.9    52     2.5   860.2    0.00 
  86    8:00   0.38   52.5    37    0.3   100     1.6   860.1    0.00 
  86    8:10   0.41   53.5    36    1.1   315     2.5   860.0    0.00 
  86    8:20   0.45   53.3    36    1.3   338     3.1   860.0    0.00 
  86    8:30   0.48   54.5    34    1.2     8     3.5   859.9    0.00 
  86    8:40   0.52   55.6    33    1.5   351     4.1   859.9    0.00 
  86    8:50   0.55   56.7    32    1.7   326     4.0   859.9    0.00 
  86    9:00   0.58   57.0    32    3.3   318     6.0   859.9    0.00 
  86    9:10   0.61   58.6    31    2.2   338     3.9   859.9    0.00 
  86    9:20   0.65   59.8    29    1.9    33     6.4   860.0    0.00 
  86    9:30   0.67   60.9    28    2.5   358     6.9   859.9    0.00 
  86    9:40   0.70   62.5    27    1.9    38     4.5   859.9    0.00 
  86    9:50   0.72   62.7    27    3.0   338     6.2   859.9    0.00 
  86   10:00   0.75   63.5    26    2.8   332     6.6   859.9    0.00 
  86   10:10   0.77   64.5    25    3.4   328     6.4   859.8    0.00 
  86   10:20   0.79   66.3    23    2.7    23     7.0   859.7    0.00 
  86   10:30   0.81   67.1    23    1.8   237     4.5   859.7    0.00 
  86   10:40   0.83   69.0    21    2.3   137     5.6   859.7    0.00 
  86   10:50   0.84   70.1    20    3.2    67     7.7   859.5    0.00 
  86   11:00   0.86   70.6    19    3.1   359     5.8   859.4    0.00 
  86   11:10   0.87   70.7    18    3.4   347     7.7   859.3    0.00 
  86   11:20   0.88   71.9    18    3.1   339     6.9   859.2    0.00 
  86   11:30   0.89   72.7    17    4.1   327     7.4   859.0    0.00 
  86   11:40   0.90   73.7    16    3.6    42     7.2   858.9    0.00 
  86   11:50   0.90   74.2    15    4.4   326    10.8   858.7    0.00 
  86   12:00   0.90   74.7    14    3.9    30     8.8   858.6    0.00 
  86   12:10   0.90   74.5    14    2.4   323     7.1   858.4    0.00 
  86   12:20   0.90   75.1    13    2.8   227     6.9   858.3    0.00 
  86   12:30   0.89   76.1    13    2.8   238     6.7   858.1    0.00 
  86   12:40   0.89   76.7    13    4.1    17     9.9   857.9    0.00 
  86   12:50   0.88   76.8    12    7.5     7    12.5   857.7    0.00 
  86   13:00   0.87   76.6    12    6.5     9    12.1   857.5    0.00 
  86   13:10   0.86   76.8    12    5.1   355    14.5   857.3    0.00 
  86   13:20   0.85   78.5    12    3.6   114     8.7   857.1    0.00 
  86   13:30   0.84   78.3    11    8.6   212    20.2   856.9    0.00 
  86   13:40   0.83   78.9    12    7.4   335    15.8   856.6    0.00 
  86   13:50   0.81   78.5    12    7.5   261    16.7   856.7    0.00 
  86   14:00   0.80   78.8    10   10.1   222    18.7   856.7    0.00 
  86   14:10   0.78   79.3    10   16.4   210    24.5   856.5    0.00 
  86   14:20   0.76   78.9    10   14.0   195    21.9   856.4    0.00 
  86   14:30   0.73   78.9    11   13.7   206    22.0   856.3    0.00 
  86   14:40   0.71   78.7    11   11.1   194    21.3   856.2    0.00 
  86   14:50   0.68   78.6    11   10.5   191    19.3   856.0    0.00 
  86   15:00   0.66   78.7    12   12.9   188    22.6   856.0    0.00 
  86   15:10   0.63   78.0    12   10.9   201    24.9   856.0    0.00 
  86   15:20   0.60   78.7    11   13.9   198    21.6   856.0    0.00 
  86   15:30   0.57   78.3    12   14.6   205    26.0   856.0    0.00 
  86   15:40   0.54   77.7    12   13.5   200    20.4   855.9    0.00 
  86   15:50   0.50   77.6    12   15.2   205    20.4   855.9    0.00 
  86   16:00   0.47   77.3    12   13.7   212    22.6   856.0    0.00 
  86   16:10   0.44   77.3    12   11.2   232    16.3   856.0    0.00 
  86   16:20   0.40   77.0    12   11.2   239    17.8   856.0    0.00 
  86   16:30   0.36   76.2    12   13.7   228    20.8   856.0    0.00 
  86   16:40   0.33   75.9    12   11.0   244    17.0   856.0    0.00 
  86   16:50   0.29   75.3    12   11.8   254    19.2   855.9    0.00 
  86   17:00   0.25   74.6    13   15.1   255    22.6   855.8    0.00 
  86   17:10   0.22   74.0    13   13.6   249    22.0   855.8    0.00 
  86   17:20   0.18   73.3    14   13.9   255    20.3   855.8    0.00 
  86   17:30   0.15   72.5    15   13.8   255    19.9   855.8    0.00 
  86   17:40   0.08   71.3    16   13.8   261    20.0   855.7    0.00 
  86   17:50   0.02   69.7    17   12.8   252    19.7   855.7    0.00 
  86   18:00   0.02   69.0    17   11.1   249    15.4   855.8    0.00 
  86   18:10   0.01   68.4    18   11.7   246    15.9   855.8    0.00 
  86   18:20   0.01   67.8    18   12.1   244    16.9   855.7    0.00 
  86   18:30   0.00   67.3    19   13.6   239    19.1   855.7    0.00 
  86   18:40   0.00   66.9    19   10.7   240    15.6   855.7    0.00 
  86   18:50   0.00   66.5    19    9.4   235    13.3   855.8    0.00 
  86   19:00   0.00   68.4    17    5.5   171    11.5   855.9    0.00 
  86   19:10   0.00   68.3    16    4.3    15     9.3   855.9    0.00 
  86   19:20   0.00   67.3    18    4.5   158    14.6   856.1    0.00 
  86   19:30   0.00   68.1    17    5.2   112    11.5   856.2    0.00 
  86   19:40   0.00   67.2    18    3.4    36     8.3   856.3    0.00 
  86   19:50   0.00   66.7    18    3.7   114    10.2   856.5    0.00 
  86   20:00   0.00   67.9    14    9.6   154    28.9   856.4    0.00 
  86   20:10   0.00   67.0    18   11.5   192    23.4   856.4    0.00 
  86   20:20   0.00   66.1    18   10.4   190    20.3   856.5    0.00 
  86   20:30   0.00   64.4    21    8.0   176    16.1   856.6    0.00 
  86   20:40   0.00   63.6    20    4.5   195     7.8   856.6    0.00 

Return to Smith Valley graphs page.


Western Regional Climate Center,wrcc@dri.edu